createdAt,value
2022-10-14T00:02:14.713Z,32.10
2022-10-14T00:07:13.872Z,31.40
2022-10-14T00:12:13.933Z,33.30
2022-10-14T00:17:14.355Z,33.00
2022-10-14T00:22:14.199Z,36.00
2022-10-14T00:27:14.538Z,32.50
2022-10-14T00:32:14.883Z,29.80
2022-10-14T00:37:13.969Z,34.00
2022-10-14T00:42:14.478Z,30.80
2022-10-14T00:47:14.386Z,34.70
2022-10-14T00:52:17.389Z,32.00
2022-10-14T00:57:14.811Z,35.90
2022-10-14T01:02:14.027Z,35.00
2022-10-14T01:07:20.930Z,33.90
2022-10-14T01:12:28.960Z,31.10
2022-10-14T01:17:20.184Z,30.70
2022-10-14T01:22:22.520Z,38.10
2022-10-14T01:27:19.549Z,27.30
2022-10-14T01:32:18.511Z,35.00
2022-10-14T01:37:18.209Z,32.30
2022-10-14T01:42:19.449Z,31.50
2022-10-14T01:47:17.461Z,30.60
2022-10-14T01:52:19.295Z,35.50
2022-10-14T01:57:18.239Z,34.70
2022-10-14T02:02:14.130Z,33.70
2022-10-14T02:07:22.880Z,35.30
2022-10-14T02:12:27.977Z,31.30
2022-10-14T02:16:26.729Z,34.00
2022-10-14T02:17:20.787Z,34.00
2022-10-14T02:22:24.458Z,35.60
2022-10-14T02:27:17.562Z,33.20
2022-10-14T02:32:17.619Z,32.40
2022-10-14T02:37:15.483Z,32.70
2022-10-14T02:42:14.159Z,36.90
2022-10-14T02:47:13.887Z,32.60
2022-10-14T02:52:14.337Z,34.50
2022-10-14T02:57:13.734Z,35.10
2022-10-14T03:02:14.178Z,34.40
2022-10-14T03:07:14.252Z,34.40
2022-10-14T03:12:13.972Z,34.20
2022-10-14T03:17:13.818Z,34.60
2022-10-14T03:22:13.767Z,33.90
2022-10-14T03:27:14.149Z,36.80
2022-10-14T03:32:13.696Z,36.90
2022-10-14T03:37:13.907Z,33.70
2022-10-14T03:42:14.569Z,36.60
2022-10-14T03:47:13.701Z,36.60
2022-10-14T03:52:13.988Z,31.60
2022-10-14T03:57:13.980Z,37.10
2022-10-14T04:02:14.021Z,37.50
2022-10-14T04:07:14.140Z,36.90
2022-10-14T04:12:14.230Z,36.50
2022-10-14T04:17:14.374Z,36.50
2022-10-14T04:22:13.707Z,42.80
2022-10-14T04:27:14.008Z,37.90
2022-10-14T04:32:13.663Z,39.60
2022-10-14T04:37:13.843Z,36.80
2022-10-14T04:42:14.088Z,41.70
2022-10-14T04:47:13.714Z,36.90
2022-10-14T04:50:43.450Z,36.10
2022-10-14T04:52:13.678Z,36.10
2022-10-14T04:55:48.425Z,42.00
2022-10-14T04:57:13.627Z,42.00
2022-10-14T05:02:14.246Z,37.70
2022-10-14T05:04:47.025Z,37.50
2022-10-14T05:07:13.781Z,37.50
2022-10-14T05:07:42.983Z,37.50
2022-10-14T05:12:13.743Z,36.10
2022-10-14T05:17:14.127Z,31.90
2022-10-14T05:22:13.954Z,35.70
2022-10-14T05:26:28.247Z,39.00
2022-10-14T05:27:13.630Z,39.00
2022-10-14T05:32:14.223Z,42.20
2022-10-14T05:33:11.463Z,42.20
2022-10-14T05:37:13.614Z,38.30
2022-10-14T05:42:13.774Z,34.30
2022-10-14T05:47:14.192Z,39.20
2022-10-14T05:52:13.608Z,34.40
2022-10-14T05:57:13.673Z,35.70
2022-10-14T06:02:14.086Z,31.00
2022-10-14T06:07:14.131Z,35.80
2022-10-14T06:12:13.826Z,36.90
2022-10-14T06:17:13.966Z,39.00
2022-10-14T06:22:13.591Z,76.20
2022-10-14T06:26:11.645Z,87.80
2022-10-14T06:27:14.040Z,87.80
2022-10-14T06:28:36.290Z,37.10
2022-10-14T06:32:13.606Z,37.10
2022-10-14T06:36:08.724Z,43.60
2022-10-14T06:37:13.612Z,43.60
2022-10-14T06:41:44.005Z,37.40
2022-10-14T06:42:14.723Z,37.40
2022-10-14T06:45:22.182Z,39.70
2022-10-14T06:47:13.763Z,39.70
2022-10-14T06:50:59.062Z,37.50
2022-10-14T06:52:14.059Z,37.50
2022-10-14T06:55:58.117Z,40.00
2022-10-14T06:56:55.052Z,40.00
2022-10-14T06:57:13.633Z,40.00
2022-10-14T06:58:06.932Z,39.80
2022-10-14T07:02:15.707Z,39.80
2022-10-14T07:06:38.229Z,41.20
2022-10-14T07:07:13.629Z,41.20
2022-10-14T07:12:13.802Z,41.90
2022-10-14T07:17:13.739Z,34.80
2022-10-14T07:22:15.485Z,39.20
2022-10-14T07:27:15.124Z,39.00
2022-10-14T07:32:13.884Z,42.30
2022-10-14T07:32:35.988Z,42.30
2022-10-14T07:37:14.619Z,36.90
2022-10-14T07:37:21.366Z,36.90
2022-10-14T07:42:13.826Z,39.10
2022-10-14T07:45:22.515Z,39.80
2022-10-14T07:47:13.614Z,39.80
2022-10-14T07:52:14.747Z,35.90
2022-10-14T07:57:13.988Z,32.90
2022-10-14T08:02:13.761Z,30.00
2022-10-14T08:06:55.174Z,34.40
2022-10-14T08:07:13.555Z,34.40
2022-10-14T08:12:13.842Z,29.60
2022-10-14T08:16:49.989Z,24.80
2022-10-14T08:17:15.295Z,24.80
2022-10-14T08:22:14.112Z,27.90
2022-10-14T08:27:13.561Z,29.40
2022-10-14T08:29:45.502Z,26.50
2022-10-14T08:32:14.192Z,26.50
2022-10-14T08:37:14.129Z,22.00
2022-10-14T08:42:28.512Z,23.20
2022-10-14T08:47:15.540Z,22.90
2022-10-14T08:52:18.694Z,22.00
2022-10-14T08:57:18.280Z,25.80
2022-10-14T09:02:23.531Z,21.60
2022-10-14T09:07:17.129Z,26.70
2022-10-14T09:12:17.501Z,25.50
2022-10-14T09:13:50.758Z,32.60
2022-10-14T09:17:19.151Z,32.60
2022-10-14T09:22:14.644Z,26.30
2022-10-14T09:27:17.090Z,60.70
2022-10-14T09:32:21.735Z,29.10
2022-10-14T09:37:25.809Z,43.90
2022-10-14T09:42:17.916Z,37.50
2022-10-14T09:47:17.926Z,29.30
2022-10-14T09:52:22.233Z,22.60
2022-10-14T09:57:17.564Z,25.70
2022-10-14T10:02:21.166Z,28.50
2022-10-14T10:07:27.081Z,34.80
2022-10-14T10:12:23.347Z,29.00
2022-10-14T10:17:18.287Z,24.40
2022-10-14T10:22:22.010Z,26.80
2022-10-14T10:27:19.272Z,28.70
2022-10-14T10:32:17.779Z,27.00
2022-10-14T10:37:24.824Z,28.80
2022-10-14T10:42:22.037Z,25.40
2022-10-14T10:47:25.664Z,25.10
2022-10-14T10:52:22.943Z,26.20
2022-10-14T10:57:29.434Z,30.80
2022-10-14T11:02:33.345Z,25.00
2022-10-14T11:07:31.847Z,24.10
2022-10-14T11:12:24.127Z,26.60
2022-10-14T11:17:21.078Z,24.40
2022-10-14T11:22:27.837Z,28.60
2022-10-14T11:27:24.777Z,27.10
2022-10-14T11:32:19.969Z,22.70
2022-10-14T11:37:24.748Z,25.10
2022-10-14T11:42:24.624Z,24.30
2022-10-14T11:47:20.784Z,25.30
2022-10-14T11:48:55.596Z,25.30
2022-10-14T11:52:18.811Z,24.20
2022-10-14T11:54:38.913Z,24.20
2022-10-14T11:56:33.290Z,24.20
2022-10-14T11:57:23.829Z,25.90
2022-10-14T12:02:20.769Z,23.90
2022-10-14T12:07:17.268Z,23.50
2022-10-14T12:08:46.647Z,23.50
2022-10-14T12:11:45.393Z,23.70
2022-10-14T12:12:17.759Z,23.70
2022-10-14T12:17:20.323Z,24.20
2022-10-14T12:22:18.621Z,27.30
2022-10-14T12:27:15.389Z,25.00
2022-10-14T12:29:03.747Z,25.00
2022-10-14T12:32:21.377Z,26.20
2022-10-14T12:37:33.991Z,24.60
2022-10-14T12:42:15.943Z,30.30
2022-10-14T12:47:20.566Z,26.10
2022-10-14T12:48:32.388Z,26.10
2022-10-14T12:52:20.340Z,25.60
2022-10-14T12:57:24.882Z,25.70
2022-10-14T13:02:24.876Z,28.00
2022-10-14T13:05:37.533Z,28.00
2022-10-14T13:07:41.064Z,25.70
2022-10-14T13:12:34.500Z,26.10
2022-10-14T13:17:27.273Z,25.00
2022-10-14T13:21:27.042Z,29.30
2022-10-14T13:22:34.443Z,29.30
2022-10-14T13:27:21.809Z,25.20
2022-10-14T13:29:25.966Z,25.20
2022-10-14T13:32:30.863Z,29.80
2022-10-14T13:34:47.864Z,29.80
2022-10-14T13:37:00.945Z,23.80
2022-10-14T13:37:28.581Z,23.80
2022-10-14T13:38:32.535Z,23.80
2022-10-14T13:40:44.454Z,23.80
2022-10-14T13:42:21.171Z,25.10
2022-10-14T13:45:35.941Z,25.10
2022-10-14T13:47:13.580Z,27.80
2022-10-14T13:52:25.110Z,23.70
2022-10-14T13:55:12.589Z,23.70
2022-10-14T14:00:41.567Z,25.50
2022-10-14T14:02:15.953Z,23.00
2022-10-14T14:07:06.920Z,26.30
2022-10-14T14:07:58.938Z,26.30
2022-10-14T14:10:25.197Z,26.30
2022-10-14T14:12:14.937Z,27.00
2022-10-14T14:12:34.698Z,27.00
2022-10-14T14:14:48.641Z,27.00
2022-10-14T14:16:58.165Z,23.40
2022-10-14T14:17:17.593Z,23.40
2022-10-14T14:22:17.416Z,27.00
2022-10-14T14:24:24.832Z,27.00
2022-10-14T14:27:15.517Z,23.20
2022-10-14T14:30:20.548Z,23.20
2022-10-14T14:32:16.953Z,25.70
2022-10-14T14:35:11.846Z,25.70
2022-10-14T14:37:43.461Z,24.10
2022-10-14T14:40:23.610Z,24.10
2022-10-14T14:42:13.278Z,23.90
2022-10-14T14:42:25.186Z,23.90
2022-10-14T14:44:50.805Z,23.90
2022-10-14T14:47:13.603Z,21.30
2022-10-14T14:52:14.750Z,21.50
2022-10-14T14:57:18.440Z,23.00
2022-10-14T15:01:43.764Z,21.80
2022-10-14T15:02:15.975Z,21.80
2022-10-14T15:04:12.430Z,21.80
2022-10-14T15:07:20.981Z,26.70
2022-10-14T15:07:42.574Z,26.70
2022-10-14T15:09:51.834Z,26.70
2022-10-14T15:12:16.278Z,23.50
2022-10-14T15:12:24.381Z,23.50
2022-10-14T15:14:48.396Z,23.50
2022-10-14T15:17:25.250Z,25.40
2022-10-14T15:22:30.187Z,22.70
2022-10-14T15:25:22.541Z,22.70
2022-10-14T15:27:34.964Z,24.90
2022-10-14T15:32:14.581Z,26.10
2022-10-14T15:35:22.972Z,26.10
2022-10-14T15:37:13.282Z,21.90
2022-10-14T15:38:15.236Z,21.90
2022-10-14T15:42:13.357Z,23.70
2022-10-14T15:47:20.871Z,27.90
2022-10-14T15:52:14.624Z,26.00
2022-10-14T15:57:15.690Z,29.70
2022-10-14T16:02:17.216Z,28.30
2022-10-14T16:07:14.348Z,30.50
2022-10-14T16:12:14.127Z,29.80
2022-10-14T16:17:13.892Z,30.70
2022-10-14T16:22:13.886Z,34.80
2022-10-14T16:27:13.489Z,31.70
2022-10-14T16:32:14.108Z,34.70
2022-10-14T16:37:13.275Z,32.40
2022-10-14T16:42:13.385Z,33.80
2022-10-14T16:45:26.914Z,30.60
2022-10-14T16:47:16.683Z,30.60
2022-10-14T16:48:38.922Z,30.60
2022-10-14T16:52:14.864Z,33.80
2022-10-14T16:56:24.936Z,33.90
2022-10-14T16:57:13.572Z,33.90
2022-10-14T17:02:14.913Z,31.40
2022-10-14T17:07:06.553Z,35.20
2022-10-14T17:07:15.516Z,35.20
2022-10-14T17:08:58.726Z,35.20
2022-10-14T17:12:14.019Z,36.30
2022-10-14T17:17:14.101Z,33.20
2022-10-14T17:22:13.271Z,34.40
2022-10-14T17:23:11.305Z,34.40
2022-10-14T17:27:13.258Z,37.40
2022-10-14T17:29:10.923Z,37.40
2022-10-14T17:31:06.850Z,36.40
2022-10-14T17:32:13.230Z,36.40
2022-10-14T17:34:53.369Z,37.30
2022-10-14T17:37:13.212Z,37.30
2022-10-14T17:42:15.045Z,34.90
2022-10-14T17:47:13.201Z,39.30
2022-10-14T17:50:50.561Z,42.70
2022-10-14T17:52:13.327Z,42.70
2022-10-14T17:54:42.356Z,43.20
2022-10-14T17:57:13.249Z,43.20
2022-10-14T18:01:37.506Z,43.20
2022-10-14T18:02:16.432Z,43.20
2022-10-14T18:07:14.305Z,38.90
2022-10-14T18:08:24.135Z,38.90
2022-10-14T18:12:13.523Z,35.10
2022-10-14T18:17:13.265Z,40.40
2022-10-14T18:22:15.023Z,42.00
2022-10-14T18:24:26.033Z,39.60
2022-10-14T18:27:03.710Z,39.60
2022-10-14T18:27:13.218Z,39.60
2022-10-14T18:32:13.416Z,36.10
2022-10-14T18:32:16.711Z,36.10
2022-10-14T18:37:13.881Z,38.90
2022-10-14T18:37:33.559Z,38.90
2022-10-14T18:42:16.048Z,45.60
2022-10-14T18:43:47.625Z,45.60
2022-10-14T18:47:13.225Z,40.50
2022-10-14T18:49:12.127Z,40.50
2022-10-14T18:52:13.185Z,40.80
2022-10-14T18:57:16.311Z,39.20
2022-10-14T18:57:57.367Z,39.20
2022-10-14T19:02:13.799Z,39.50
2022-10-14T19:03:17.582Z,39.50
2022-10-14T19:07:13.199Z,43.40
2022-10-14T19:12:23.529Z,39.70
2022-10-14T19:22:13.838Z,44.50
2022-10-14T19:27:13.129Z,42.80
2022-10-14T19:32:13.520Z,46.30
2022-10-14T19:37:13.266Z,42.10
2022-10-14T19:42:13.161Z,52.40
2022-10-14T19:47:13.676Z,44.00
2022-10-14T19:52:13.231Z,46.00
2022-10-14T19:55:09.443Z,47.60
2022-10-14T19:57:13.082Z,47.60
2022-10-14T20:02:13.588Z,46.10
2022-10-14T20:07:13.078Z,57.80
2022-10-14T20:11:23.552Z,51.20
2022-10-14T20:12:13.080Z,51.20
2022-10-14T20:14:47.554Z,47.70
2022-10-14T20:17:13.295Z,47.70
2022-10-14T20:22:13.089Z,49.10
2022-10-14T20:27:13.535Z,45.40
2022-10-14T20:32:13.070Z,52.50
2022-10-14T20:37:13.214Z,50.90
2022-10-14T20:42:13.390Z,48.70
2022-10-14T20:47:13.202Z,47.40
2022-10-14T20:52:13.939Z,47.30
2022-10-14T20:57:13.763Z,49.60
2022-10-14T21:02:15.507Z,47.90
2022-10-14T21:07:13.546Z,45.80
2022-10-14T21:12:14.194Z,46.30
2022-10-14T21:17:13.049Z,48.10
2022-10-14T21:22:13.688Z,48.00
2022-10-14T21:27:13.489Z,49.90
2022-10-14T21:32:13.175Z,48.20
2022-10-14T21:37:16.630Z,46.80
2022-10-14T21:42:13.381Z,48.70
2022-10-14T21:47:13.279Z,48.10
2022-10-14T21:52:13.086Z,49.90
2022-10-14T21:57:13.424Z,53.50
2022-10-14T22:02:13.185Z,49.60
2022-10-14T22:07:13.348Z,50.80
2022-10-14T22:12:13.906Z,53.30
2022-10-14T22:17:13.009Z,51.90
2022-10-14T22:22:13.147Z,52.40
2022-10-14T22:24:42.277Z,51.10
2022-10-14T22:26:36.654Z,51.10
2022-10-14T22:27:13.075Z,51.10
2022-10-14T22:32:13.203Z,51.80
2022-10-14T22:37:13.660Z,54.20
2022-10-14T22:42:12.988Z,52.70
2022-10-14T22:45:07.095Z,50.40
2022-10-14T22:47:12.989Z,50.40
2022-10-14T22:52:13.417Z,55.80
2022-10-14T22:57:12.986Z,58.80
2022-10-14T23:02:13.019Z,55.10
2022-10-14T23:07:14.031Z,59.60
2022-10-14T23:12:12.974Z,59.90
2022-10-14T23:17:13.019Z,57.60
2022-10-14T23:22:13.065Z,60.50
2022-10-14T23:23:35.239Z,56.10
2022-10-14T23:25:11.754Z,56.10
2022-10-14T23:27:13.258Z,56.10
2022-10-14T23:30:59.251Z,56.50
2022-10-14T23:31:57.234Z,56.50
2022-10-14T23:32:13.178Z,56.50
2022-10-14T23:37:13.083Z,63.00
2022-10-14T23:39:19.200Z,60.20
2022-10-14T23:42:13.108Z,60.20
2022-10-14T23:45:15.817Z,60.90
2022-10-14T23:47:00.038Z,60.90
2022-10-14T23:47:12.945Z,60.90
2022-10-14T23:49:54.950Z,63.60
2022-10-14T23:52:13.116Z,63.60
2022-10-14T23:54:14.553Z,61.70
2022-10-14T23:56:19.351Z,61.70
2022-10-14T23:57:13.078Z,61.70
2022-10-14T23:58:28.774Z,59.60
